Time,TemperatureF,DewpointF,PressureIn,WindDirection,WindDirectionDegrees,WindSpeedMPH,WindSpeedGustMPH,Humidity,HourlyPrecipIn,Conditions,Clouds,dailyrainin,SolarRadiationWatts/m^2,SoftwareType,DateUTC
2013-08-15 00:12:00,56.8,54.0,30.04,South,171,0.0,0.0,90,0.00,,,0.00,0,weatherlink.com 1.10,2013-08-15 04:12:00,
2013-08-15 00:27:00,56.5,54.0,30.05,South,171,0.0,0.0,90,0.00,,,0.00,0,weatherlink.com 1.10,2013-08-15 04:27:00,
2013-08-15 00:42:00,56.1,54.0,30.05,South,171,0.0,0.0,91,0.00,,,0.00,0,weatherlink.com 1.10,2013-08-15 04:42:00,
2013-08-15 00:57:00,55.7,54.0,30.06,South,171,0.0,0.0,92,0.00,,,0.00,0,weatherlink.com 1.10,2013-08-15 04:57:00,
2013-08-15 01:12:00,55.5,53.0,30.06,South,171,0.0,0.0,92,0.00,,,0.00,0,weatherlink.com 1.10,2013-08-15 05:12:00,
2013-08-15 01:27:00,55.4,54.0,30.06,South,171,0.0,0.0,93,0.00,,,0.00,0,weatherlink.com 1.10,2013-08-15 05:27:00,
2013-08-15 01:42:00,55.2,53.0,30.06,South,171,0.0,0.0,93,0.00,,,0.00,0,weatherlink.com 1.10,2013-08-15 05:42:00,
2013-08-15 01:57:00,54.9,53.0,30.06,South,171,0.0,0.0,93,0.00,,,0.00,0,weatherlink.com 1.10,2013-08-15 05:57:00,
2013-08-15 02:12:00,54.5,53.0,30.07,South,171,0.0,0.0,93,0.00,,,0.00,0,weatherlink.com 1.10,2013-08-15 06:12:00,
2013-08-15 02:27:00,54.4,53.0,30.07,South,171,0.0,0.0,94,0.00,,,0.00,0,weatherlink.com 1.10,2013-08-15 06:27:00,
2013-08-15 02:42:00,54.3,53.0,30.07,South,171,0.0,0.0,94,0.00,,,0.00,0,weatherlink.com 1.10,2013-08-15 06:42:00,
2013-08-15 02:57:00,54.3,53.0,30.08,South,171,0.0,0.0,94,0.00,,,0.00,0,weatherlink.com 1.10,2013-08-15 06:57:00,
2013-08-15 03:12:00,54.0,52.0,30.08,South,171,0.0,0.0,94,0.00,,,0.00,0,weatherlink.com 1.10,2013-08-15 07:12:00,
2013-08-15 03:27:00,53.7,52.0,30.08,South,171,0.0,0.0,94,0.00,,,0.00,0,weatherlink.com 1.10,2013-08-15 07:27:00,
2013-08-15 03:43:00,53.5,52.0,30.08,South,171,0.0,0.0,95,0.00,,,0.00,0,weatherlink.com 1.10,2013-08-15 07:43:00,
2013-08-15 03:57:00,53.7,52.0,30.08,West,259,0.0,1.0,95,0.00,,,0.00,0,weatherlink.com 1.10,2013-08-15 07:57:00,
2013-08-15 04:12:00,54.1,53.0,30.08,ENE,76,0.0,1.0,95,0.00,,,0.00,0,weatherlink.com 1.10,2013-08-15 08:12:00,
2013-08-15 04:28:00,54.0,52.0,30.08,ENE,76,0.0,1.0,94,0.00,,,0.00,0,weatherlink.com 1.10,2013-08-15 08:28:00,
2013-08-15 04:43:00,54.0,52.0,30.08,ESE,110,0.0,1.0,94,0.00,,,0.00,0,weatherlink.com 1.10,2013-08-15 08:43:00,
2013-08-15 04:58:00,53.9,53.0,30.09,ESE,110,0.0,1.0,95,0.00,,,0.00,0,weatherlink.com 1.10,2013-08-15 08:58:00,
2013-08-15 05:13:00,53.7,52.0,30.09,ESE,110,0.0,0.0,95,0.00,,,0.00,0,weatherlink.com 1.10,2013-08-15 09:13:00,
2013-08-15 05:28:00,53.6,52.0,30.10,ESE,110,0.0,0.0,95,0.00,,,0.00,0,weatherlink.com 1.10,2013-08-15 09:28:00,
2013-08-15 05:43:00,53.3,52.0,30.10,ESE,110,0.0,0.0,95,0.00,,,0.00,0,weatherlink.com 1.10,2013-08-15 09:43:00,
2013-08-15 05:58:00,53.0,52.0,30.11,ESE,110,0.0,1.0,95,0.00,,,0.00,0,weatherlink.com 1.10,2013-08-15 09:58:00,
2013-08-15 06:13:00,52.9,52.0,30.12,ESE,110,0.0,0.0,96,0.00,,,0.00,0,weatherlink.com 1.10,2013-08-15 10:13:00,
2013-08-15 06:28:00,52.9,52.0,30.12,ESE,110,0.0,0.0,96,0.00,,,0.00,7,weatherlink.com 1.10,2013-08-15 10:28:00,
2013-08-15 06:43:00,53.0,52.0,30.13,ESE,110,0.0,0.0,96,0.00,,,0.00,11,weatherlink.com 1.10,2013-08-15 10:43:00,
2013-08-15 06:58:00,53.3,53.0,30.13,ESE,110,0.0,0.0,97,0.00,,,0.00,12,weatherlink.com 1.10,2013-08-15 10:58:00,
2013-08-15 07:13:00,53.7,53.0,30.13,ESE,110,0.0,0.0,97,0.00,,,0.00,14,weatherlink.com 1.10,2013-08-15 11:13:00,
2013-08-15 07:28:00,54.3,54.0,30.13,SSE,163,0.0,2.0,97,0.00,,,0.00,18,weatherlink.com 1.10,2013-08-15 11:28:00,
2013-08-15 07:43:00,55.1,54.0,30.13,SSE,163,0.0,1.0,96,0.00,,,0.00,21,weatherlink.com 1.10,2013-08-15 11:43:00,
2013-08-15 07:58:00,56.0,55.0,30.14,SSE,163,0.0,1.0,96,0.00,,,0.00,25,weatherlink.com 1.10,2013-08-15 11:58:00,
2013-08-15 08:13:00,57.6,56.0,30.14,SSE,163,1.0,1.0,95,0.00,,,0.00,26,weatherlink.com 1.10,2013-08-15 12:13:00,
2013-08-15 08:28:00,59.5,57.0,30.14,WSW,248,0.0,2.0,91,0.00,,,0.00,30,weatherlink.com 1.10,2013-08-15 12:28:00,
2013-08-15 08:43:00,61.4,58.0,30.14,NE,36,1.0,4.0,87,0.00,,,0.00,32,weatherlink.com 1.10,2013-08-15 12:43:00,
2013-08-15 08:58:00,63.8,58.0,30.14,South,179,0.0,3.0,81,0.00,,,0.00,63,weatherlink.com 1.10,2013-08-15 12:58:00,
2013-08-15 09:13:00,67.0,59.0,30.14,SSW,196,1.0,5.0,75,0.00,,,0.00,520,weatherlink.com 1.10,2013-08-15 13:13:00,
2013-08-15 09:28:00,69.2,61.0,30.15,ENE,61,0.0,3.0,75,0.00,,,0.00,577,weatherlink.com 1.10,2013-08-15 13:28:00,
2013-08-15 09:43:00,71.3,61.0,30.15,South,175,0.0,5.0,71,0.00,,,0.00,629,weatherlink.com 1.10,2013-08-15 13:43:00,
2013-08-15 09:58:00,73.3,57.0,30.15,SSE,157,0.0,3.0,58,0.00,,,0.00,677,weatherlink.com 1.10,2013-08-15 13:58:00,
2013-08-15 10:13:00,74.5,58.0,30.15,West,272,2.0,4.0,57,0.00,,,0.00,722,weatherlink.com 1.10,2013-08-15 14:13:00,
2013-08-15 10:28:00,74.9,56.0,30.16,WSW,239,0.0,4.0,52,0.00,,,0.00,765,weatherlink.com 1.10,2013-08-15 14:28:00,
2013-08-15 10:43:00,76.1,61.0,30.16,ESE,106,2.0,3.0,59,0.00,,,0.00,809,weatherlink.com 1.10,2013-08-15 14:43:00,
2013-08-15 10:59:00,76.6,59.0,30.16,WNW,286,0.0,4.0,55,0.00,,,0.00,865,weatherlink.com 1.10,2013-08-15 14:59:00,
2013-08-15 11:14:00,77.6,54.0,30.15,SSW,192,1.0,3.0,44,0.00,,,0.00,914,weatherlink.com 1.10,2013-08-15 15:14:00,
2013-08-15 11:29:00,79.1,55.0,30.15,SSE,153,1.0,3.0,44,0.00,,,0.00,972,weatherlink.com 1.10,2013-08-15 15:29:00,
2013-08-15 11:44:00,79.5,56.0,30.15,East,80,0.0,3.0,44,0.00,,,0.00,963,weatherlink.com 1.10,2013-08-15 15:44:00,
2013-08-15 11:59:00,79.1,58.0,30.15,WSW,254,0.0,4.0,48,0.00,,,0.00,977,weatherlink.com 1.10,2013-08-15 15:59:00,
2013-08-15 12:14:00,78.5,55.0,30.14,South,186,5.0,6.0,44,0.00,,,0.00,1067,weatherlink.com 1.10,2013-08-15 16:14:00,
2013-08-15 12:29:00,79.1,61.0,30.14,East,101,1.0,4.0,55,0.00,,,0.00,1011,weatherlink.com 1.10,2013-08-15 16:29:00,
2013-08-15 12:44:00,78.2,58.0,30.14,South,190,0.0,5.0,50,0.00,,,0.00,271,weatherlink.com 1.10,2013-08-15 16:44:00,
2013-08-15 12:59:00,76.4,57.0,30.14,WSW,251,0.0,4.0,51,0.00,,,0.00,1060,weatherlink.com 1.10,2013-08-15 16:59:00,
2013-08-15 13:14:00,78.2,59.0,30.13,East,80,0.0,2.0,51,0.00,,,0.00,330,weatherlink.com 1.10,2013-08-15 17:14:00,
2013-08-15 13:29:00,78.5,55.0,30.13,East,85,0.0,4.0,45,0.00,,,0.00,283,weatherlink.com 1.10,2013-08-15 17:29:00,
2013-08-15 13:44:00,76.5,56.0,30.12,SSW,204,0.0,5.0,49,0.00,,,0.00,176,weatherlink.com 1.10,2013-08-15 17:44:00,
2013-08-15 13:59:00,75.4,57.0,30.12,SSW,194,0.0,4.0,54,0.00,,,0.00,250,weatherlink.com 1.10,2013-08-15 17:59:00,
2013-08-15 14:14:00,75.8,59.0,30.12,SSW,208,3.0,3.0,57,0.00,,,0.00,185,weatherlink.com 1.10,2013-08-15 18:14:00,
2013-08-15 14:44:00,78.0,62.0,30.11,SSW,196,4.0,9.0,59,0.00,,,0.00,1025,weatherlink.com 1.10,2013-08-15 18:44:00,
2013-08-15 15:14:00,74.6,59.0,30.11,NW,320,0.0,3.0,58,0.00,,,0.00,237,weatherlink.com 1.10,2013-08-15 19:14:00,
2013-08-15 15:29:00,73.5,59.0,30.11,West,276,4.0,7.0,61,0.00,,,0.00,172,weatherlink.com 1.10,2013-08-15 19:29:00,
2013-08-15 15:44:00,75.3,59.0,30.11,West,261,3.0,7.0,57,0.00,,,0.00,186,weatherlink.com 1.10,2013-08-15 19:44:00,
2013-08-15 15:59:00,76.8,59.0,30.10,West,274,2.0,11.0,54,0.00,,,0.00,694,weatherlink.com 1.10,2013-08-15 19:59:00,
2013-08-15 16:29:00,77.6,58.0,30.10,East,101,5.0,7.0,52,0.00,,,0.00,533,weatherlink.com 1.10,2013-08-15 20:29:00,
2013-08-15 16:44:00,77.6,57.0,30.10,West,269,4.0,8.0,49,0.00,,,0.00,531,weatherlink.com 1.10,2013-08-15 20:44:00,
2013-08-15 16:59:00,77.4,58.0,30.10,SW,234,2.0,7.0,51,0.00,,,0.00,494,weatherlink.com 1.10,2013-08-15 20:59:00,
2013-08-15 17:44:00,75.9,57.0,30.11,West,267,2.0,6.0,53,0.00,,,0.00,183,weatherlink.com 1.10,2013-08-15 21:44:00,
2013-08-15 17:59:00,74.7,57.0,30.10,West,262,1.0,5.0,55,0.00,,,0.00,72,weatherlink.com 1.10,2013-08-15 21:59:00,
2013-08-15 18:14:00,72.8,57.0,30.11,NW,313,0.0,6.0,57,0.00,,,0.00,42,weatherlink.com 1.10,2013-08-15 22:14:00,
2013-08-15 18:29:00,71.5,57.0,30.11,SSW,213,1.0,3.0,60,0.00,,,0.00,23,weatherlink.com 1.10,2013-08-15 22:29:00,
2013-08-15 18:44:00,70.4,58.0,30.10,West,273,0.0,1.0,64,0.00,,,0.00,19,weatherlink.com 1.10,2013-08-15 22:44:00,
2013-08-15 18:59:00,68.5,59.0,30.11,West,273,0.0,0.0,72,0.00,,,0.00,16,weatherlink.com 1.10,2013-08-15 22:59:00,
2013-08-15 19:14:00,66.4,59.0,30.11,West,273,0.0,0.0,76,0.00,,,0.00,12,weatherlink.com 1.10,2013-08-15 23:14:00,
2013-08-15 19:44:00,63.4,58.0,30.13,West,273,0.0,0.0,81,0.00,,,0.00,0,weatherlink.com 1.10,2013-08-15 23:44:00,
2013-08-15 19:59:00,62.1,57.0,30.13,West,273,0.0,0.0,83,0.00,,,0.00,0,weatherlink.com 1.10,2013-08-15 23:59:00,
2013-08-15 20:14:00,61.2,56.0,30.14,West,273,0.0,0.0,84,0.00,,,0.00,0,weatherlink.com 1.10,2013-08-16 00:14:00,
2013-08-15 20:29:00,61.0,57.0,30.14,West,273,0.0,0.0,86,0.00,,,0.00,0,weatherlink.com 1.10,2013-08-16 00:29:00,
2013-08-15 20:44:00,61.2,58.0,30.15,West,273,0.0,0.0,88,0.00,,,0.00,0,weatherlink.com 1.10,2013-08-16 00:44:00,
2013-08-15 20:59:00,61.3,58.0,30.16,West,273,0.0,1.0,88,0.00,,,0.00,0,weatherlink.com 1.10,2013-08-16 00:59:00,
2013-08-15 21:15:00,61.3,58.0,30.17,West,273,0.0,1.0,88,0.00,,,0.00,0,weatherlink.com 1.10,2013-08-16 01:15:00,
2013-08-15 21:45:00,61.6,59.0,30.18,West,273,0.0,0.0,90,0.00,,,0.00,0,weatherlink.com 1.10,2013-08-16 01:45:00,
2013-08-15 22:00:00,61.7,59.0,30.17,West,273,0.0,0.0,90,0.00,,,0.00,0,weatherlink.com 1.10,2013-08-16 02:00:00,
2013-08-15 22:15:00,61.3,58.0,30.17,West,273,0.0,0.0,89,0.00,,,0.00,0,weatherlink.com 1.10,2013-08-16 02:15:00,
2013-08-15 22:30:00,60.7,58.0,30.17,West,273,0.0,0.0,90,0.00,,,0.00,0,weatherlink.com 1.10,2013-08-16 02:30:00,
2013-08-15 22:45:00,60.2,57.0,30.17,West,273,0.0,0.0,90,0.00,,,0.00,0,weatherlink.com 1.10,2013-08-16 02:45:00,
2013-08-15 23:00:00,59.9,57.0,30.18,West,273,0.0,0.0,91,0.00,,,0.00,0,weatherlink.com 1.10,2013-08-16 03:00:00,
2013-08-15 23:15:00,59.7,57.0,30.18,West,273,0.0,0.0,92,0.00,,,0.00,0,weatherlink.com 1.10,2013-08-16 03:15:00,
2013-08-15 23:30:00,59.5,58.0,30.18,West,273,0.0,0.0,93,0.00,,,0.00,0,weatherlink.com 1.10,2013-08-16 03:30:00,
2013-08-15 23:45:00,59.6,58.0,30.18,West,273,0.0,0.0,93,0.00,,,0.00,0,weatherlink.com 1.10,2013-08-16 03:45:00,